createdAt,value
2022-08-13T00:01:11.139Z,100882.69
2022-08-13T00:04:19.945Z,100872.44
2022-08-13T00:07:23.057Z,100877.63
2022-08-13T00:10:27.467Z,100886.41
2022-08-13T00:13:41.241Z,100880.72
2022-08-13T00:16:45.901Z,100879.16
2022-08-13T00:19:54.965Z,100877.22
2022-08-13T00:23:01.582Z,100868.66
2022-08-13T00:26:03.620Z,100871.84
2022-08-13T00:29:05.309Z,100872.44
2022-08-13T00:32:12.919Z,100877.63
2022-08-13T00:35:25.165Z,100873.66
2022-08-13T00:38:45.992Z,100870.94
2022-08-13T00:41:57.628Z,100871.41
2022-08-13T00:45:02.020Z,100869.16
2022-08-13T00:48:29.498Z,100869.16
2022-08-13T00:51:57.078Z,100867.75
2022-08-13T00:55:00.180Z,100869.91
2022-08-13T00:58:03.065Z,100864.06
2022-08-13T01:01:10.153Z,100859.09
2022-08-13T01:04:27.637Z,100860.69
2022-08-13T01:07:47.808Z,100867.56
2022-08-13T01:10:58.562Z,100860.69
2022-08-13T01:14:06.600Z,100862.16
2022-08-13T01:17:10.020Z,100859.56
2022-08-13T01:20:33.589Z,100862.59
2022-08-13T01:23:37.669Z,100861.63
2022-08-13T01:26:46.474Z,100860.19
2022-08-13T01:29:50.849Z,100863.34
2022-08-13T01:32:55.725Z,100858.53
2022-08-13T01:36:00.024Z,100867.09
2022-08-13T01:39:06.645Z,100859.38
2022-08-13T01:42:21.641Z,100868.84
2022-08-13T01:45:35.850Z,100861.97
2022-08-13T01:49:00.284Z,100862.16
2022-08-13T01:52:03.158Z,100860.00
2022-08-13T01:55:05.825Z,100867.28
2022-08-13T01:58:15.295Z,100861.44
2022-08-13T02:01:18.712Z,100861.00
2022-08-13T02:04:42.678Z,100856.03
2022-08-13T02:08:00.912Z,100862.59
2022-08-13T02:11:04.820Z,100870.00
2022-08-13T02:14:09.668Z,100868.44
2022-08-13T02:18:02.908Z,100866.72
2022-08-13T02:20:57.231Z,100866.00
2022-08-13T02:24:02.906Z,100863.59
2022-08-13T02:27:04.881Z,100874.00
2022-08-13T02:30:08.596Z,100863.28
2022-08-13T02:33:18.055Z,100866.28
2022-08-13T02:36:26.107Z,100863.03
2022-08-13T02:39:43.622Z,100853.44
2022-08-13T02:42:45.990Z,100856.84
2022-08-13T02:45:49.534Z,100856.53
2022-08-13T02:48:53.814Z,100853.28
2022-08-13T02:52:06.525Z,100858.69
2022-08-13T02:55:10.157Z,100851.16
2022-08-13T02:58:17.132Z,100855.84
2022-08-13T03:01:19.351Z,100848.00
2022-08-13T03:04:21.604Z,100861.38
2022-08-13T03:07:51.838Z,100857.25
2022-08-13T03:10:56.692Z,100855.41
2022-08-13T03:14:05.318Z,100862.69
2022-08-13T03:17:22.103Z,100860.50
2022-08-13T03:20:24.772Z,100861.34
2022-08-13T03:23:29.093Z,100857.25
2022-08-13T03:26:40.477Z,100860.91
2022-08-13T03:30:02.840Z,100866.63
2022-08-13T03:33:11.213Z,100871.59
2022-08-13T03:36:14.469Z,100859.91
2022-08-13T03:39:16.568Z,100858.75
2022-08-13T03:42:19.824Z,100862.31
2022-08-13T03:45:46.222Z,100857.34
2022-08-13T03:48:49.587Z,100854.63
2022-08-13T03:51:51.452Z,100851.94
2022-08-13T03:54:55.340Z,100860.03
2022-08-13T03:58:14.194Z,100844.94
2022-08-13T04:01:19.705Z,100844.34
2022-08-13T04:04:23.309Z,100842.78
2022-08-13T04:07:31.990Z,100851.88
2022-08-13T04:10:51.450Z,100850.31
2022-08-13T04:14:05.328Z,100842.19
2022-08-13T04:17:11.774Z,100853.75
2022-08-13T04:20:16.068Z,100851.72
2022-08-13T04:23:18.227Z,100852.88
2022-08-13T04:26:30.956Z,100859.28
2022-08-13T04:29:41.734Z,100854.88
2022-08-13T04:32:58.016Z,100856.28
2022-08-13T04:36:14.052Z,100856.56
2022-08-13T04:39:16.014Z,100849.72
2022-08-13T04:42:32.111Z,100850.03
2022-08-13T04:45:36.975Z,100853.31
2022-08-13T04:48:38.758Z,100850.34
2022-08-13T04:51:47.450Z,100857.34
2022-08-13T04:54:50.097Z,100850.78
2022-08-13T04:58:00.141Z,100846.94
2022-08-13T05:01:48.526Z,100838.41
2022-08-13T05:04:33.955Z,100843.41
2022-08-13T05:07:35.729Z,100846.25
2022-08-13T05:10:41.433Z,100843.72
2022-08-13T05:13:46.741Z,100845.72
2022-08-13T05:17:00.168Z,100846.72
2022-08-13T05:20:02.055Z,100837.03
2022-08-13T05:26:09.813Z,100836.78
2022-08-13T05:26:54.789Z,100847.47
2022-08-13T05:30:30.546Z,100839.63
2022-08-13T05:33:18.453Z,100838.19
2022-08-13T05:38:13.303Z,100836.53
2022-08-13T05:39:57.879Z,100844.16
2022-08-13T05:43:04.729Z,100844.06
2022-08-13T05:46:10.148Z,100850.66
2022-08-13T05:49:12.878Z,100848.97
2022-08-13T05:52:35.818Z,100846.84
2022-08-13T05:56:09.939Z,100839.50
2022-08-13T05:59:03.892Z,100840.59
2022-08-13T06:02:34.880Z,100850.63
2022-08-13T06:05:46.758Z,100842.50
2022-08-13T06:08:51.740Z,100842.47
2022-08-13T06:12:25.305Z,100841.03
2022-08-13T06:15:15.255Z,100842.13
2022-08-13T06:18:29.357Z,100829.97
2022-08-13T06:21:49.340Z,100840.88
2022-08-13T06:24:56.395Z,100840.66
2022-08-13T06:28:02.250Z,100842.44
2022-08-13T06:31:09.100Z,100841.50
2022-08-13T06:34:33.771Z,100852.75
2022-08-13T06:37:38.707Z,100844.88
2022-08-13T06:40:43.818Z,100845.25
2022-08-13T06:44:01.294Z,100845.63
2022-08-13T06:47:05.762Z,100848.72
2022-08-13T06:50:11.322Z,100852.59
2022-08-13T06:54:21.257Z,100858.75
2022-08-13T06:56:37.786Z,100851.56
2022-08-13T07:00:04.758Z,100860.81
2022-08-13T07:03:03.408Z,100861.81
2022-08-13T07:06:17.653Z,100865.34
2022-08-13T07:09:21.767Z,100868.78
2022-08-13T07:12:25.188Z,100871.81
2022-08-13T07:15:39.371Z,100866.66
2022-08-13T07:18:47.673Z,100863.72
2022-08-13T07:21:49.607Z,100864.66
2022-08-13T07:24:54.122Z,100864.47
2022-08-13T07:27:56.835Z,100857.75
2022-08-13T07:31:01.134Z,100855.78
2022-08-13T07:34:05.514Z,100853.13
2022-08-13T07:37:08.145Z,100858.16
2022-08-13T07:40:10.503Z,100863.78
2022-08-13T07:43:21.171Z,100863.69
2022-08-13T07:46:28.974Z,100868.69
2022-08-13T07:49:44.587Z,100855.41
2022-08-13T07:52:54.147Z,100854.09
2022-08-13T07:56:22.400Z,100850.88
2022-08-13T07:59:24.221Z,100858.53
2022-08-13T08:02:46.877Z,100859.78
2022-08-13T08:05:51.838Z,100868.59
2022-08-13T08:08:54.951Z,100868.19
2022-08-13T08:12:18.183Z,100869.41
2022-08-13T08:16:02.158Z,100868.34
2022-08-13T08:19:26.901Z,100868.06
2022-08-13T08:22:25.731Z,100872.19
2022-08-13T08:25:41.917Z,100874.81
2022-08-13T08:28:50.584Z,100855.28
2022-08-13T08:32:00.171Z,100864.94
2022-08-13T08:35:07.524Z,100865.19
2022-08-13T08:38:33.347Z,100867.28
2022-08-13T08:41:56.161Z,100870.94
2022-08-13T08:45:00.442Z,100877.47
2022-08-13T08:48:04.393Z,100871.34
2022-08-13T08:51:18.496Z,100876.75
2022-08-13T08:54:31.141Z,100877.28
2022-08-13T08:57:34.714Z,100880.56
2022-08-13T09:00:37.709Z,100869.00
2022-08-13T09:03:45.892Z,100872.03
2022-08-13T09:06:59.208Z,100870.41
2022-08-13T09:10:01.141Z,100864.94
2022-08-13T09:13:04.619Z,100860.91
2022-08-13T09:16:06.574Z,100856.94
2022-08-13T09:19:12.202Z,100855.50
2022-08-13T09:22:29.665Z,100854.84
2022-08-13T09:25:36.715Z,100847.47
2022-08-13T09:28:48.634Z,100852.75
2022-08-13T09:31:53.821Z,100849.34
2022-08-13T09:34:56.342Z,100852.09
2022-08-13T09:37:59.724Z,100843.59
2022-08-13T09:41:15.707Z,100846.75
2022-08-13T09:44:19.479Z,100845.47
2022-08-13T09:48:35.985Z,100834.44
2022-08-13T09:50:44.464Z,100840.34
2022-08-13T09:53:53.910Z,100824.44
2022-08-13T09:57:00.919Z,100825.69
2022-08-13T10:00:04.873Z,100831.38
2022-08-13T10:03:13.786Z,100819.31
2022-08-13T10:06:19.613Z,100819.72
2022-08-13T10:09:22.690Z,100818.81
2022-08-13T10:12:30.777Z,100815.41
2022-08-13T10:15:33.397Z,100816.22
2022-08-13T10:18:35.387Z,100811.94
2022-08-13T10:21:39.872Z,100812.78
2022-08-13T10:24:41.745Z,100809.38
2022-08-13T10:27:49.208Z,100803.84
2022-08-13T10:31:00.124Z,100796.28
2022-08-13T10:34:13.824Z,100797.09
2022-08-13T10:37:22.466Z,100782.41
2022-08-13T10:40:25.277Z,100783.78
2022-08-13T10:43:56.049Z,100786.59
2022-08-13T10:47:03.909Z,100785.84
2022-08-13T10:50:06.822Z,100781.25
2022-08-13T10:53:08.967Z,100782.19
2022-08-13T10:56:12.443Z,100775.63
2022-08-13T10:59:14.070Z,100773.63
2022-08-13T11:02:19.940Z,100770.81
2022-08-13T11:05:26.529Z,100762.19
2022-08-13T11:08:32.204Z,100767.16
2022-08-13T11:11:53.115Z,100758.66
2022-08-13T11:14:56.746Z,100756.84
2022-08-13T11:17:59.309Z,100755.06
2022-08-13T11:22:19.482Z,100756.91
2022-08-13T11:24:25.647Z,100749.13
2022-08-13T11:27:50.852Z,100742.53
2022-08-13T11:30:58.503Z,100733.53
2022-08-13T11:34:06.849Z,100744.09
2022-08-13T11:37:12.491Z,100733.22
2022-08-13T11:40:30.323Z,100738.91
2022-08-13T11:43:52.550Z,100725.28
2022-08-13T11:46:57.552Z,100727.06
2022-08-13T11:49:59.252Z,100731.56
2022-08-13T11:53:01.323Z,100725.53
2022-08-13T11:56:04.637Z,100722.41
2022-08-13T11:59:06.932Z,100705.53
2022-08-13T12:02:15.339Z,100711.16
2022-08-13T12:05:17.610Z,100707.38
2022-08-13T12:08:22.073Z,100703.59
2022-08-13T12:12:09.529Z,100707.97
2022-08-13T12:15:05.606Z,100705.38
2022-08-13T12:18:15.669Z,100696.97
2022-08-13T12:21:18.160Z,100700.97
2022-08-13T12:24:33.057Z,100696.84
2022-08-13T12:27:46.281Z,100692.56
2022-08-13T12:30:51.082Z,100690.19
2022-08-13T12:33:52.772Z,100686.34
2022-08-13T12:36:54.418Z,100679.53
2022-08-13T12:39:58.347Z,100675.31
2022-08-13T12:43:03.365Z,100674.19
2022-08-13T12:46:22.640Z,100657.56
2022-08-13T12:50:00.591Z,100665.69
2022-08-13T12:52:57.484Z,100665.63
2022-08-13T12:55:59.276Z,100658.53
2022-08-13T12:59:01.142Z,100657.69
2022-08-13T13:02:03.535Z,100660.81
2022-08-13T13:05:16.691Z,100655.00
2022-08-13T13:08:36.391Z,100658.22
2022-08-13T13:11:51.929Z,100654.78
2022-08-13T13:15:12.236Z,100653.41
2022-08-13T13:18:47.132Z,100643.38
2022-08-13T13:21:41.677Z,100638.97
2022-08-13T13:28:07.612Z,100637.53
2022-08-13T13:31:16.429Z,100645.03
2022-08-13T13:34:25.856Z,100638.34
2022-08-13T13:37:29.539Z,100639.94
2022-08-13T13:40:44.655Z,100626.56
2022-08-13T13:43:46.793Z,100631.00
2022-08-13T13:46:56.193Z,100633.06
2022-08-13T13:50:01.845Z,100631.81
2022-08-13T13:53:21.813Z,100623.16
2022-08-13T13:56:26.006Z,100623.59
2022-08-13T13:59:35.856Z,100625.38
2022-08-13T14:02:50.579Z,100637.53
2022-08-13T14:06:01.556Z,100621.97
2022-08-13T14:09:05.397Z,100620.69
2022-08-13T14:12:08.010Z,100612.63
2022-08-13T14:15:09.974Z,100614.13
2022-08-13T14:18:26.306Z,100606.84
2022-08-13T14:21:29.396Z,100622.03
2022-08-13T14:24:44.845Z,100618.72
2022-08-13T14:27:48.200Z,100610.81
2022-08-13T14:30:54.303Z,100619.78
2022-08-13T14:33:59.011Z,100609.16
2022-08-13T14:37:21.757Z,100621.66
2022-08-13T14:40:32.175Z,100615.13
2022-08-13T14:44:02.444Z,100600.13
2022-08-13T14:47:00.377Z,100606.38
2022-08-13T14:50:12.681Z,100606.84
2022-08-13T14:53:16.793Z,100605.53
2022-08-13T14:56:21.222Z,100603.09
2022-08-13T14:59:32.220Z,100599.03
2022-08-13T15:03:08.735Z,100599.84
2022-08-13T15:06:04.370Z,100596.22
2022-08-13T15:09:13.381Z,100609.22
2022-08-13T15:12:19.759Z,100599.72
2022-08-13T15:15:29.489Z,100603.19
2022-08-13T15:18:38.485Z,100601.34
2022-08-13T15:21:48.578Z,100593.19
2022-08-13T15:24:55.473Z,100584.47
2022-08-13T15:27:58.837Z,100592.38
2022-08-13T15:31:08.341Z,100579.03
2022-08-13T15:34:19.176Z,100575.97
2022-08-13T15:37:25.802Z,100576.47
2022-08-13T15:40:47.905Z,100576.16
2022-08-13T15:43:49.681Z,100569.63
2022-08-13T15:47:03.609Z,100563.34
2022-08-13T15:50:10.314Z,100561.56
2022-08-13T15:53:29.925Z,100567.44
2022-08-13T15:56:35.768Z,100559.47
2022-08-13T15:59:46.311Z,100564.91
2022-08-13T16:03:07.628Z,100563.59
2022-08-13T16:06:40.776Z,100554.69
2022-08-13T16:09:51.712Z,100563.91
2022-08-13T16:13:10.299Z,100564.44
2022-08-13T16:16:18.661Z,100556.94
2022-08-13T16:19:55.692Z,100560.25
2022-08-13T16:23:23.112Z,100555.81
2022-08-13T16:29:47.471Z,100555.75
2022-08-13T16:32:54.655Z,100544.81
2022-08-13T16:35:56.771Z,100548.66
2022-08-13T16:38:59.181Z,100543.66
2022-08-13T16:42:01.655Z,100540.94
2022-08-13T16:48:54.190Z,100538.97
2022-08-13T16:52:26.564Z,100536.28
2022-08-13T16:55:56.658Z,100536.31
2022-08-13T16:58:55.215Z,100544.00
2022-08-13T17:06:56.555Z,100526.47
2022-08-13T17:10:02.355Z,100533.69
2022-08-13T17:13:08.627Z,100525.88
2022-08-13T17:16:17.848Z,100522.31
2022-08-13T17:19:58.511Z,100528.28
2022-08-13T17:23:23.851Z,100519.19
2022-08-13T17:26:57.572Z,100515.63
2022-08-13T17:30:16.290Z,100515.66
2022-08-13T17:33:56.057Z,100516.94
2022-08-13T17:37:05.013Z,100515.03
2022-08-13T17:40:19.871Z,100508.50
2022-08-13T17:43:58.265Z,100499.41
2022-08-13T17:46:50.918Z,100499.00
2022-08-13T17:49:52.851Z,100499.66
2022-08-13T17:52:56.019Z,100496.06
2022-08-13T17:56:05.721Z,100505.16
2022-08-13T17:59:13.115Z,100509.38
2022-08-13T18:02:23.643Z,100511.69
2022-08-13T18:05:46.342Z,100502.19
2022-08-13T18:08:49.522Z,100513.44
2022-08-13T18:11:54.790Z,100513.94
2022-08-13T18:14:56.631Z,100510.56
2022-08-13T18:18:41.062Z,100508.25
2022-08-13T18:21:24.000Z,100516.50
2022-08-13T18:24:31.052Z,100509.09
2022-08-13T18:28:05.967Z,100513.94
2022-08-13T18:31:01.125Z,100518.38
2022-08-13T18:34:18.086Z,100513.31
2022-08-13T18:37:22.401Z,100512.28
2022-08-13T18:40:25.144Z,100513.94
2022-08-13T18:43:31.081Z,100516.91
2022-08-13T18:46:37.915Z,100518.59
2022-08-13T18:49:51.381Z,100525.13
2022-08-13T18:53:07.777Z,100524.22
2022-08-13T18:56:15.750Z,100529.72
2022-08-13T18:59:17.518Z,100530.34
2022-08-13T19:02:25.539Z,100533.03
2022-08-13T19:05:35.184Z,100535.56
2022-08-13T19:08:38.371Z,100541.06
2022-08-13T19:11:45.980Z,100531.28
2022-08-13T19:14:53.028Z,100539.91
2022-08-13T19:17:57.640Z,100542.63
2022-08-13T19:21:50.711Z,100543.22
2022-08-13T19:24:29.215Z,100547.22
2022-08-13T19:27:35.024Z,100543.78
2022-08-13T19:30:54.672Z,100548.38
2022-08-13T19:33:56.362Z,100544.94
2022-08-13T19:37:01.941Z,100539.22
2022-08-13T19:40:35.614Z,100547.16
2022-08-13T19:43:29.430Z,100543.69
2022-08-13T19:46:39.214Z,100553.09
2022-08-13T19:49:54.721Z,100552.19
2022-08-13T19:52:58.710Z,100550.91
2022-08-13T20:01:04.051Z,100542.25
2022-08-13T20:04:14.332Z,100534.78
2022-08-13T20:07:17.117Z,100540.00
2022-08-13T20:10:20.178Z,100540.59
2022-08-13T20:13:22.029Z,100532.31
2022-08-13T20:16:34.134Z,100531.47
2022-08-13T20:19:59.346Z,100534.69
2022-08-13T20:22:58.572Z,100528.34
2022-08-13T20:26:03.974Z,100536.00
2022-08-13T20:29:29.236Z,100540.56
2022-08-13T20:32:32.990Z,100540.16
2022-08-13T20:40:01.591Z,100539.91
2022-08-13T20:43:12.977Z,100542.75
2022-08-13T20:46:18.071Z,100552.09
2022-08-13T20:49:20.670Z,100543.13
2022-08-13T20:52:46.702Z,100542.38
2022-08-13T20:55:53.492Z,100550.69
2022-08-13T21:00:44.603Z,100546.78
2022-08-13T21:02:18.787Z,100543.09
2022-08-13T21:05:23.362Z,100539.88
2022-08-13T21:08:26.090Z,100544.88
2022-08-13T21:11:40.837Z,100538.06
2022-08-13T21:14:50.848Z,100529.59
2022-08-13T21:17:56.941Z,100538.34
2022-08-13T21:21:01.628Z,100530.72
2022-08-13T21:24:04.133Z,100529.22
2022-08-13T21:27:14.775Z,100527.31
2022-08-13T21:30:30.930Z,100529.38
2022-08-13T21:33:34.811Z,100524.31
2022-08-13T21:36:47.373Z,100525.69
2022-08-13T21:39:51.130Z,100531.31
2022-08-13T21:43:00.293Z,100532.06
2022-08-13T21:46:04.361Z,100534.97
2022-08-13T21:49:12.645Z,100529.88
2022-08-13T21:52:15.569Z,100531.31
2022-08-13T21:55:23.633Z,100528.75
2022-08-13T21:58:29.757Z,100533.75
2022-08-13T22:01:37.069Z,100533.91
2022-08-13T22:04:41.809Z,100525.25
2022-08-13T22:07:57.996Z,100530.50
2022-08-13T22:11:02.657Z,100520.34
2022-08-13T22:14:16.405Z,100521.72
2022-08-13T22:17:20.826Z,100514.94
2022-08-13T22:20:25.464Z,100519.19
2022-08-13T22:23:31.562Z,100519.75
2022-08-13T22:26:43.679Z,100522.34
2022-08-13T22:30:11.520Z,100522.72
2022-08-13T22:33:19.863Z,100528.19
2022-08-13T22:36:31.762Z,100528.72
2022-08-13T22:39:41.254Z,100530.66
2022-08-13T22:42:45.445Z,100517.19
2022-08-13T22:49:24.080Z,100510.94
2022-08-13T22:53:03.350Z,100508.53
2022-08-13T23:00:29.842Z,100507.03
2022-08-13T23:03:41.366Z,100508.25
2022-08-13T23:06:46.723Z,100506.72
2022-08-13T23:10:05.556Z,100504.91
2022-08-13T23:13:27.986Z,100506.09
2022-08-13T23:16:42.263Z,100505.97
2022-08-13T23:20:03.412Z,100495.78
2022-08-13T23:23:37.347Z,100496.13
2022-08-13T23:41:43.348Z,100459.09
2022-08-13T23:44:58.399Z,100456.56
2022-08-13T23:48:13.763Z,100461.31
2022-08-13T23:51:37.855Z,100458.09
2022-08-13T23:55:19.761Z,100458.97
2022-08-13T23:58:34.483Z,100454.19
